sensor_id;sensor_type;location;lat;lon;timestamp;P1;durP1;ratioP1;P2;durP2;ratioP2
12469;SDS011;36499;46.484;13.832;2023-11-21T00:02:11;8.70;;;5.10;;
12469;SDS011;36499;46.484;13.832;2023-11-21T00:04:38;10.07;;;6.60;;
12469;SDS011;36499;46.484;13.832;2023-11-21T00:07:05;9.13;;;5.10;;
12469;SDS011;36499;46.484;13.832;2023-11-21T00:09:32;10.77;;;5.10;;
12469;SDS011;36499;46.484;13.832;2023-11-21T00:12:00;11.40;;;5.77;;
12469;SDS011;36499;46.484;13.832;2023-11-21T00:14:27;12.47;;;6.20;;
12469;SDS011;36499;46.484;13.832;2023-11-21T00:16:55;17.63;;;5.93;;
12469;SDS011;36499;46.484;13.832;2023-11-21T00:19:22;16.47;;;6.23;;
12469;SDS011;36499;46.484;13.832;2023-11-21T00:21:49;12.57;;;6.20;;
12469;SDS011;36499;46.484;13.832;2023-11-21T00:24:15;5.83;;;4.40;;
12469;SDS011;36499;46.484;13.832;2023-11-21T00:26:42;8.43;;;4.67;;
12469;SDS011;36499;46.484;13.832;2023-11-21T00:29:09;9.00;;;5.30;;
12469;SDS011;36499;46.484;13.832;2023-11-21T00:31:36;7.07;;;4.40;;
12469;SDS011;36499;46.484;13.832;2023-11-21T00:34:05;8.03;;;4.50;;
12469;SDS011;36499;46.484;13.832;2023-11-21T00:36:32;7.50;;;4.40;;
12469;SDS011;36499;46.484;13.832;2023-11-21T00:38:58;6.97;;;4.50;;
12469;SDS011;36499;46.484;13.832;2023-11-21T00:41:25;7.80;;;4.33;;
12469;SDS011;36499;46.484;13.832;2023-11-21T00:43:53;10.03;;;4.93;;
12469;SDS011;36499;46.484;13.832;2023-11-21T00:46:20;6.73;;;4.27;;
12469;SDS011;36499;46.484;13.832;2023-11-21T00:48:47;5.77;;;3.90;;
12469;SDS011;36499;46.484;13.832;2023-11-21T00:51:15;8.13;;;4.20;;
12469;SDS011;36499;46.484;13.832;2023-11-21T00:53:42;14.87;;;6.57;;
12469;SDS011;36499;46.484;13.832;2023-11-21T00:56:08;13.97;;;6.37;;
12469;SDS011;36499;46.484;13.832;2023-11-21T00:58:35;5.47;;;4.00;;
12469;SDS011;36499;46.484;13.832;2023-11-21T01:01:02;7.00;;;3.77;;
12469;SDS011;36499;46.484;13.832;2023-11-21T01:03:29;7.20;;;3.80;;
12469;SDS011;36499;46.484;13.832;2023-11-21T01:05:55;7.40;;;4.03;;
12469;SDS011;36499;46.484;13.832;2023-11-21T01:08:24;8.07;;;4.30;;
12469;SDS011;36499;46.484;13.832;2023-11-21T01:10:50;6.47;;;3.87;;
12469;SDS011;36499;46.484;13.832;2023-11-21T01:13:17;5.17;;;3.70;;
12469;SDS011;36499;46.484;13.832;2023-11-21T01:15:44;5.90;;;4.00;;
12469;SDS011;36499;46.484;13.832;2023-11-21T01:18:11;4.73;;;3.53;;
12469;SDS011;36499;46.484;13.832;2023-11-21T01:20:38;6.97;;;3.80;;
12469;SDS011;36499;46.484;13.832;2023-11-21T01:23:05;5.13;;;3.57;;
12469;SDS011;36499;46.484;13.832;2023-11-21T01:25:33;6.20;;;3.67;;
12469;SDS011;36499;46.484;13.832;2023-11-21T01:28:00;9.63;;;3.83;;
12469;SDS011;36499;46.484;13.832;2023-11-21T01:30:27;6.43;;;3.97;;
12469;SDS011;36499;46.484;13.832;2023-11-21T01:32:54;7.67;;;3.90;;
12469;SDS011;36499;46.484;13.832;2023-11-21T01:35:21;5.20;;;3.43;;
12469;SDS011;36499;46.484;13.832;2023-11-21T01:37:48;5.17;;;3.67;;
12469;SDS011;36499;46.484;13.832;2023-11-21T01:40:15;6.93;;;4.40;;
12469;SDS011;36499;46.484;13.832;2023-11-21T01:42:43;5.63;;;3.93;;
12469;SDS011;36499;46.484;13.832;2023-11-21T01:45:12;10.07;;;7.20;;
12469;SDS011;36499;46.484;13.832;2023-11-21T01:47:39;9.20;;;5.90;;
12469;SDS011;36499;46.484;13.832;2023-11-21T02:10:05;8.50;;;4.27;;
12469;SDS011;36499;46.484;13.832;2023-11-21T02:12:33;4.97;;;3.37;;
12469;SDS011;36499;46.484;13.832;2023-11-21T02:15:02;5.30;;;3.47;;
12469;SDS011;36499;46.484;13.832;2023-11-21T02:17:30;11.97;;;4.73;;
12469;SDS011;36499;46.484;13.832;2023-11-21T02:19:57;4.63;;;3.20;;
12469;SDS011;36499;46.484;13.832;2023-11-21T02:22:25;6.43;;;3.83;;
12469;SDS011;36499;46.484;13.832;2023-11-21T02:24:57;7.27;;;3.53;;
12469;SDS011;36499;46.484;13.832;2023-11-21T02:27:23;5.50;;;3.50;;
12469;SDS011;36499;46.484;13.832;2023-11-21T02:29:52;4.40;;;3.23;;
12469;SDS011;36499;46.484;13.832;2023-11-21T02:32:19;4.27;;;3.30;;
12469;SDS011;36499;46.484;13.832;2023-11-21T02:34:48;6.13;;;4.00;;
12469;SDS011;36499;46.484;13.832;2023-11-21T02:37:15;4.70;;;3.93;;
12469;SDS011;36499;46.484;13.832;2023-11-21T02:39:41;5.90;;;4.07;;
12469;SDS011;36499;46.484;13.832;2023-11-21T02:58:59;8.63;;;3.83;;
12469;SDS011;36499;46.484;13.832;2023-11-21T03:01:26;8.00;;;4.53;;
12469;SDS011;36499;46.484;13.832;2023-11-21T03:03:54;7.03;;;4.23;;
12469;SDS011;36499;46.484;13.832;2023-11-21T03:06:21;5.43;;;3.90;;
12469;SDS011;36499;46.484;13.832;2023-11-21T03:08:49;13.93;;;4.07;;
12469;SDS011;36499;46.484;13.832;2023-11-21T03:11:16;3.80;;;3.40;;
12469;SDS011;36499;46.484;13.832;2023-11-21T03:13:42;9.53;;;3.03;;
12469;SDS011;36499;46.484;13.832;2023-11-21T03:16:11;3.77;;;3.00;;
12469;SDS011;36499;46.484;13.832;2023-11-21T03:18:39;5.93;;;3.60;;
12469;SDS011;36499;46.484;13.832;2023-11-21T03:21:06;4.63;;;3.30;;
12469;SDS011;36499;46.484;13.832;2023-11-21T03:23:33;4.60;;;3.50;;
12469;SDS011;36499;46.484;13.832;2023-11-21T03:26:00;5.17;;;3.47;;
12469;SDS011;36499;46.484;13.832;2023-11-21T03:28:27;10.03;;;6.03;;
12469;SDS011;36499;46.484;13.832;2023-11-21T03:30:55;6.80;;;4.50;;
12469;SDS011;36499;46.484;13.832;2023-11-21T03:33:23;6.20;;;3.97;;
12469;SDS011;36499;46.484;13.832;2023-11-21T03:35:50;5.13;;;4.10;;
12469;SDS011;36499;46.484;13.832;2023-11-21T03:38:18;6.80;;;4.30;;
12469;SDS011;36499;46.484;13.832;2023-11-21T03:40:45;8.03;;;4.20;;
12469;SDS011;36499;46.484;13.832;2023-11-21T03:43:12;6.70;;;4.03;;
12469;SDS011;36499;46.484;13.832;2023-11-21T03:45:39;6.97;;;4.33;;
12469;SDS011;36499;46.484;13.832;2023-11-21T03:48:06;10.57;;;5.13;;
12469;SDS011;36499;46.484;13.832;2023-11-21T03:50:34;10.77;;;6.57;;
12469;SDS011;36499;46.484;13.832;2023-11-21T03:53:01;13.27;;;9.37;;
12469;SDS011;36499;46.484;13.832;2023-11-21T03:55:28;10.50;;;7.27;;
12469;SDS011;36499;46.484;13.832;2023-11-21T03:57:56;11.97;;;7.50;;
12469;SDS011;36499;46.484;13.832;2023-11-21T04:00:23;7.37;;;5.50;;
12469;SDS011;36499;46.484;13.832;2023-11-21T04:02:52;4.20;;;3.47;;
12469;SDS011;36499;46.484;13.832;2023-11-21T04:05:19;4.77;;;3.80;;
12469;SDS011;36499;46.484;13.832;2023-11-21T04:07:48;4.40;;;3.50;;
12469;SDS011;36499;46.484;13.832;2023-11-21T04:10:15;5.40;;;3.67;;
12469;SDS011;36499;46.484;13.832;2023-11-21T04:12:42;4.13;;;3.37;;
12469;SDS011;36499;46.484;13.832;2023-11-21T04:15:09;4.97;;;3.30;;
12469;SDS011;36499;46.484;13.832;2023-11-21T04:17:37;7.97;;;4.07;;
12469;SDS011;36499;46.484;13.832;2023-11-21T04:20:05;6.13;;;3.73;;
12469;SDS011;36499;46.484;13.832;2023-11-21T04:22:36;8.77;;;4.70;;
12469;SDS011;36499;46.484;13.832;2023-11-21T04:25:07;7.07;;;3.87;;
12469;SDS011;36499;46.484;13.832;2023-11-21T04:27:34;8.57;;;4.80;;
12469;SDS011;36499;46.484;13.832;2023-11-21T04:30:01;5.10;;;3.50;;
12469;SDS011;36499;46.484;13.832;2023-11-21T04:32:28;3.20;;;2.73;;
12469;SDS011;36499;46.484;13.832;2023-11-21T04:34:55;3.27;;;2.80;;
12469;SDS011;36499;46.484;13.832;2023-11-21T04:37:21;4.73;;;2.40;;
12469;SDS011;36499;46.484;13.832;2023-11-21T04:39:49;3.73;;;2.40;;
12469;SDS011;36499;46.484;13.832;2023-11-21T04:42:18;4.50;;;2.67;;
12469;SDS011;36499;46.484;13.832;2023-11-21T04:44:45;2.40;;;2.20;;
12469;SDS011;36499;46.484;13.832;2023-11-21T04:47:11;3.90;;;2.73;;
12469;SDS011;36499;46.484;13.832;2023-11-21T04:49:42;3.10;;;2.10;;
12469;SDS011;36499;46.484;13.832;2023-11-21T04:52:09;3.87;;;2.30;;
12469;SDS011;36499;46.484;13.832;2023-11-21T04:54:36;3.37;;;3.00;;
12469;SDS011;36499;46.484;13.832;2023-11-21T04:57:03;4.50;;;3.83;;
12469;SDS011;36499;46.484;13.832;2023-11-21T04:59:33;4.83;;;3.30;;
12469;SDS011;36499;46.484;13.832;2023-11-21T05:02:00;7.10;;;4.10;;
12469;SDS011;36499;46.484;13.832;2023-11-21T05:04:27;4.83;;;3.33;;
12469;SDS011;36499;46.484;13.832;2023-11-21T05:06:54;4.40;;;3.07;;
12469;SDS011;36499;46.484;13.832;2023-11-21T05:09:21;3.37;;;2.63;;
12469;SDS011;36499;46.484;13.832;2023-11-21T05:11:48;4.03;;;2.50;;
12469;SDS011;36499;46.484;13.832;2023-11-21T05:14:15;12.87;;;8.73;;
12469;SDS011;36499;46.484;13.832;2023-11-21T05:16:45;6.90;;;3.47;;
12469;SDS011;36499;46.484;13.832;2023-11-21T05:19:12;4.53;;;3.80;;
12469;SDS011;36499;46.484;13.832;2023-11-21T05:21:38;17.57;;;13.47;;
12469;SDS011;36499;46.484;13.832;2023-11-21T05:24:06;20.83;;;15.37;;
12469;SDS011;36499;46.484;13.832;2023-11-21T05:26:33;12.57;;;9.40;;
12469;SDS011;36499;46.484;13.832;2023-11-21T05:28:59;17.17;;;12.17;;
12469;SDS011;36499;46.484;13.832;2023-11-21T05:31:26;4.83;;;4.10;;
12469;SDS011;36499;46.484;13.832;2023-11-21T05:33:54;9.43;;;3.63;;
12469;SDS011;36499;46.484;13.832;2023-11-21T05:36:22;12.53;;;9.90;;
12469;SDS011;36499;46.484;13.832;2023-11-21T05:38:48;3.67;;;2.93;;
12469;SDS011;36499;46.484;13.832;2023-11-21T05:41:15;2.43;;;1.90;;
12469;SDS011;36499;46.484;13.832;2023-11-21T05:43:42;2.97;;;2.00;;
12469;SDS011;36499;46.484;13.832;2023-11-21T05:46:09;7.97;;;4.70;;
12469;SDS011;36499;46.484;13.832;2023-11-21T05:48:36;5.13;;;3.93;;
12469;SDS011;36499;46.484;13.832;2023-11-21T05:51:06;3.30;;;2.60;;
12469;SDS011;36499;46.484;13.832;2023-11-21T05:53:33;7.07;;;3.83;;
12469;SDS011;36499;46.484;13.832;2023-11-21T05:56:00;8.77;;;3.20;;
12469;SDS011;36499;46.484;13.832;2023-11-21T05:58:28;7.47;;;4.00;;
12469;SDS011;36499;46.484;13.832;2023-11-21T06:00:55;3.43;;;2.70;;
12469;SDS011;36499;46.484;13.832;2023-11-21T06:03:22;4.37;;;2.33;;
12469;SDS011;36499;46.484;13.832;2023-11-21T06:05:50;3.17;;;2.53;;
12469;SDS011;36499;46.484;13.832;2023-11-21T06:08:18;5.70;;;3.10;;
12469;SDS011;36499;46.484;13.832;2023-11-21T06:10:45;4.53;;;3.00;;
12469;SDS011;36499;46.484;13.832;2023-11-21T06:13:14;4.17;;;2.30;;
12469;SDS011;36499;46.484;13.832;2023-11-21T06:15:41;7.43;;;3.47;;
12469;SDS011;36499;46.484;13.832;2023-11-21T06:18:08;4.70;;;3.33;;
12469;SDS011;36499;46.484;13.832;2023-11-21T06:20:36;7.53;;;3.87;;
12469;SDS011;36499;46.484;13.832;2023-11-21T06:23:03;7.60;;;4.20;;
12469;SDS011;36499;46.484;13.832;2023-11-21T06:25:32;3.97;;;3.20;;
12469;SDS011;36499;46.484;13.832;2023-11-21T06:28:01;5.20;;;2.60;;
12469;SDS011;36499;46.484;13.832;2023-11-21T06:30:28;10.47;;;4.97;;
12469;SDS011;36499;46.484;13.832;2023-11-21T06:32:55;6.67;;;4.03;;
12469;SDS011;36499;46.484;13.832;2023-11-21T06:35:21;13.33;;;7.43;;
12469;SDS011;36499;46.484;13.832;2023-11-21T06:37:48;23.93;;;15.00;;
12469;SDS011;36499;46.484;13.832;2023-11-21T06:40:16;14.93;;;10.03;;
12469;SDS011;36499;46.484;13.832;2023-11-21T06:42:45;5.50;;;3.70;;
12469;SDS011;36499;46.484;13.832;2023-11-21T06:45:12;3.73;;;2.90;;
12469;SDS011;36499;46.484;13.832;2023-11-21T06:47:40;4.27;;;2.70;;
12469;SDS011;36499;46.484;13.832;2023-11-21T06:50:07;10.07;;;6.60;;
12469;SDS011;36499;46.484;13.832;2023-11-21T06:52:34;16.03;;;9.33;;
12469;SDS011;36499;46.484;13.832;2023-11-21T06:55:01;13.47;;;8.00;;
12469;SDS011;36499;46.484;13.832;2023-11-21T06:57:28;9.83;;;7.07;;
12469;SDS011;36499;46.484;13.832;2023-11-21T06:59:56;7.63;;;5.63;;
12469;SDS011;36499;46.484;13.832;2023-11-21T07:02:23;6.97;;;5.57;;
12469;SDS011;36499;46.484;13.832;2023-11-21T07:04:50;6.93;;;4.53;;
12469;SDS011;36499;46.484;13.832;2023-11-21T07:07:18;12.40;;;7.20;;
12469;SDS011;36499;46.484;13.832;2023-11-21T07:09:45;10.50;;;7.13;;
12469;SDS011;36499;46.484;13.832;2023-11-21T07:12:13;19.13;;;11.47;;
12469;SDS011;36499;46.484;13.832;2023-11-21T07:14:39;16.13;;;8.77;;
12469;SDS011;36499;46.484;13.832;2023-11-21T07:17:09;8.40;;;5.60;;
12469;SDS011;36499;46.484;13.832;2023-11-21T07:19:37;7.43;;;5.20;;
12469;SDS011;36499;46.484;13.832;2023-11-21T07:22:03;4.87;;;4.07;;
12469;SDS011;36499;46.484;13.832;2023-11-21T07:24:31;6.10;;;3.97;;
12469;SDS011;36499;46.484;13.832;2023-11-21T07:26:57;5.80;;;3.87;;
12469;SDS011;36499;46.484;13.832;2023-11-21T07:29:24;4.00;;;3.23;;
12469;SDS011;36499;46.484;13.832;2023-11-21T07:31:51;4.60;;;2.70;;
12469;SDS011;36499;46.484;13.832;2023-11-21T07:34:20;5.30;;;2.97;;
12469;SDS011;36499;46.484;13.832;2023-11-21T07:36:46;4.03;;;2.63;;
12469;SDS011;36499;46.484;13.832;2023-11-21T07:39:13;4.60;;;3.03;;
12469;SDS011;36499;46.484;13.832;2023-11-21T07:41:41;5.73;;;4.07;;
12469;SDS011;36499;46.484;13.832;2023-11-21T07:44:13;5.00;;;3.60;;
12469;SDS011;36499;46.484;13.832;2023-11-21T07:46:41;5.57;;;3.30;;
12469;SDS011;36499;46.484;13.832;2023-11-21T07:49:08;4.17;;;3.07;;
12469;SDS011;36499;46.484;13.832;2023-11-21T07:51:36;3.33;;;2.50;;
12469;SDS011;36499;46.484;13.832;2023-11-21T07:54:03;6.37;;;3.80;;
12469;SDS011;36499;46.484;13.832;2023-11-21T07:56:30;5.80;;;4.00;;
12469;SDS011;36499;46.484;13.832;2023-11-21T07:58:57;5.87;;;4.33;;
12469;SDS011;36499;46.484;13.832;2023-11-21T08:01:24;19.90;;;8.10;;
12469;SDS011;36499;46.484;13.832;2023-11-21T08:03:53;27.00;;;10.53;;
12469;SDS011;36499;46.484;13.832;2023-11-21T08:06:22;18.70;;;10.40;;
12469;SDS011;36499;46.484;13.832;2023-11-21T08:08:50;29.30;;;14.53;;
12469;SDS011;36499;46.484;13.832;2023-11-21T08:11:17;29.33;;;17.47;;
12469;SDS011;36499;46.484;13.832;2023-11-21T08:13:44;19.77;;;12.60;;
12469;SDS011;36499;46.484;13.832;2023-11-21T08:16:12;7.97;;;4.93;;
12469;SDS011;36499;46.484;13.832;2023-11-21T08:18:38;3.67;;;3.27;;
12469;SDS011;36499;46.484;13.832;2023-11-21T08:21:06;5.07;;;2.90;;
12469;SDS011;36499;46.484;13.832;2023-11-21T08:23:33;5.70;;;3.10;;
12469;SDS011;36499;46.484;13.832;2023-11-21T08:26:01;15.07;;;7.33;;
12469;SDS011;36499;46.484;13.832;2023-11-21T08:28:28;11.87;;;5.10;;
12469;SDS011;36499;46.484;13.832;2023-11-21T08:30:55;6.23;;;3.70;;
12469;SDS011;36499;46.484;13.832;2023-11-21T08:33:22;3.97;;;3.33;;
12469;SDS011;36499;46.484;13.832;2023-11-21T08:35:49;5.83;;;3.57;;
12469;SDS011;36499;46.484;13.832;2023-11-21T08:38:15;5.73;;;3.80;;
12469;SDS011;36499;46.484;13.832;2023-11-21T08:40:42;5.43;;;3.63;;
12469;SDS011;36499;46.484;13.832;2023-11-21T08:43:11;5.73;;;3.73;;
12469;SDS011;36499;46.484;13.832;2023-11-21T08:45:39;7.20;;;3.93;;
12469;SDS011;36499;46.484;13.832;2023-11-21T08:48:06;6.40;;;3.33;;
12469;SDS011;36499;46.484;13.832;2023-11-21T08:50:33;6.27;;;4.10;;
12469;SDS011;36499;46.484;13.832;2023-11-21T08:53:00;6.07;;;4.30;;
12469;SDS011;36499;46.484;13.832;2023-11-21T08:55:27;7.27;;;5.20;;
12469;SDS011;36499;46.484;13.832;2023-11-21T08:57:53;6.33;;;4.63;;
12469;SDS011;36499;46.484;13.832;2023-11-21T09:00:22;8.23;;;5.20;;
12469;SDS011;36499;46.484;13.832;2023-11-21T09:02:48;8.37;;;5.67;;
12469;SDS011;36499;46.484;13.832;2023-11-21T09:05:15;8.73;;;6.70;;
12469;SDS011;36499;46.484;13.832;2023-11-21T09:07:42;9.07;;;6.20;;
12469;SDS011;36499;46.484;13.832;2023-11-21T09:10:11;7.70;;;5.80;;
12469;SDS011;36499;46.484;13.832;2023-11-21T09:12:39;9.57;;;6.30;;
12469;SDS011;36499;46.484;13.832;2023-11-21T09:15:08;9.37;;;5.80;;
12469;SDS011;36499;46.484;13.832;2023-11-21T09:17:38;10.83;;;4.63;;
12469;SDS011;36499;46.484;13.832;2023-11-21T09:20:05;3.47;;;2.43;;
12469;SDS011;36499;46.484;13.832;2023-11-21T09:22:35;5.63;;;3.63;;
12469;SDS011;36499;46.484;13.832;2023-11-21T09:25:01;5.57;;;4.07;;
12469;SDS011;36499;46.484;13.832;2023-11-21T09:27:30;5.83;;;3.70;;
12469;SDS011;36499;46.484;13.832;2023-11-21T09:29:57;11.47;;;7.77;;
12469;SDS011;36499;46.484;13.832;2023-11-21T09:32:24;16.80;;;12.77;;
12469;SDS011;36499;46.484;13.832;2023-11-21T09:34:52;15.17;;;9.33;;
12469;SDS011;36499;46.484;13.832;2023-11-21T09:37:20;3.67;;;3.00;;
12469;SDS011;36499;46.484;13.832;2023-11-21T09:39:47;3.90;;;2.93;;
12469;SDS011;36499;46.484;13.832;2023-11-21T09:42:15;2.33;;;2.13;;
12469;SDS011;36499;46.484;13.832;2023-11-21T09:44:52;2.30;;;2.10;;
12469;SDS011;36499;46.484;13.832;2023-11-21T09:47:26;2.07;;;1.60;;
12469;SDS011;36499;46.484;13.832;2023-11-21T09:49:56;1.67;;;1.57;;
12469;SDS011;36499;46.484;13.832;2023-11-21T09:52:26;2.30;;;1.77;;
12469;SDS011;36499;46.484;13.832;2023-11-21T09:54:54;3.17;;;1.70;;
12469;SDS011;36499;46.484;13.832;2023-11-21T09:57:23;4.47;;;1.70;;
12469;SDS011;36499;46.484;13.832;2023-11-21T09:59:51;3.93;;;2.30;;
12469;SDS011;36499;46.484;13.832;2023-11-21T10:02:21;3.10;;;2.30;;
12469;SDS011;36499;46.484;13.832;2023-11-21T10:04:51;3.60;;;2.33;;
12469;SDS011;36499;46.484;13.832;2023-11-21T10:07:21;3.37;;;2.10;;
12469;SDS011;36499;46.484;13.832;2023-11-21T10:09:48;2.77;;;2.07;;
12469;SDS011;36499;46.484;13.832;2023-11-21T10:12:17;1.33;;;1.23;;
12469;SDS011;36499;46.484;13.832;2023-11-21T10:14:45;1.60;;;1.30;;
12469;SDS011;36499;46.484;13.832;2023-11-21T10:17:14;2.20;;;1.17;;
12469;SDS011;36499;46.484;13.832;2023-11-21T10:19:43;3.43;;;2.00;;
12469;SDS011;36499;46.484;13.832;2023-11-21T10:22:13;1.90;;;1.67;;
12469;SDS011;36499;46.484;13.832;2023-11-21T10:24:44;2.03;;;1.50;;
12469;SDS011;36499;46.484;13.832;2023-11-21T10:27:11;2.00;;;1.10;;
12469;SDS011;36499;46.484;13.832;2023-11-21T10:29:38;1.20;;;1.10;;
12469;SDS011;36499;46.484;13.832;2023-11-21T10:32:07;3.30;;;1.60;;
12469;SDS011;36499;46.484;13.832;2023-11-21T10:34:33;2.57;;;1.67;;
12469;SDS011;36499;46.484;13.832;2023-11-21T10:37:07;1.90;;;1.40;;
12469;SDS011;36499;46.484;13.832;2023-11-21T10:39:38;2.40;;;1.63;;
12469;SDS011;36499;46.484;13.832;2023-11-21T10:42:07;5.37;;;2.60;;
12469;SDS011;36499;46.484;13.832;2023-11-21T10:44:35;2.17;;;1.40;;
12469;SDS011;36499;46.484;13.832;2023-11-21T10:47:02;1.67;;;1.50;;
12469;SDS011;36499;46.484;13.832;2023-11-21T10:49:30;11.30;;;5.30;;
12469;SDS011;36499;46.484;13.832;2023-11-21T10:51:57;18.23;;;2.10;;
12469;SDS011;36499;46.484;13.832;2023-11-21T10:54:24;3.20;;;1.80;;
12469;SDS011;36499;46.484;13.832;2023-11-21T10:56:53;2.87;;;1.90;;
12469;SDS011;36499;46.484;13.832;2023-11-21T10:59:25;1.93;;;1.40;;
12469;SDS011;36499;46.484;13.832;2023-11-21T11:01:54;1.27;;;1.17;;
12469;SDS011;36499;46.484;13.832;2023-11-21T11:04:27;3.60;;;1.30;;
12469;SDS011;36499;46.484;13.832;2023-11-21T11:06:54;2.33;;;1.00;;
12469;SDS011;36499;46.484;13.832;2023-11-21T11:09:23;3.03;;;1.17;;
12469;SDS011;36499;46.484;13.832;2023-11-21T11:11:50;1.73;;;1.30;;
12469;SDS011;36499;46.484;13.832;2023-11-21T11:14:18;1.53;;;1.30;;
12469;SDS011;36499;46.484;13.832;2023-11-21T11:16:53;2.57;;;1.40;;
12469;SDS011;36499;46.484;13.832;2023-11-21T11:19:20;1.20;;;1.10;;
12469;SDS011;36499;46.484;13.832;2023-11-21T11:21:50;5.70;;;1.30;;
12469;SDS011;36499;46.484;13.832;2023-11-21T11:24:33;2.23;;;1.40;;
12469;SDS011;36499;46.484;13.832;2023-11-21T11:27:15;1.93;;;1.37;;
12469;SDS011;36499;46.484;13.832;2023-11-21T11:29:52;1.10;;;1.00;;
12469;SDS011;36499;46.484;13.832;2023-11-21T11:32:36;1.27;;;0.90;;
12469;SDS011;36499;46.484;13.832;2023-11-21T11:35:10;1.47;;;0.90;;
12469;SDS011;36499;46.484;13.832;2023-11-21T11:37:43;4.30;;;1.20;;
12469;SDS011;36499;46.484;13.832;2023-11-21T11:40:10;1.20;;;1.00;;
12469;SDS011;36499;46.484;13.832;2023-11-21T11:42:38;1.80;;;1.50;;
12469;SDS011;36499;46.484;13.832;2023-11-21T11:45:17;2.87;;;1.93;;
12469;SDS011;36499;46.484;13.832;2023-11-21T11:47:45;2.53;;;1.10;;
12469;SDS011;36499;46.484;13.832;2023-11-21T11:50:14;2.17;;;1.57;;
12469;SDS011;36499;46.484;13.832;2023-11-21T11:52:42;2.50;;;2.00;;
12469;SDS011;36499;46.484;13.832;2023-11-21T11:55:09;3.70;;;2.30;;
12469;SDS011;36499;46.484;13.832;2023-11-21T11:57:38;10.27;;;4.83;;
12469;SDS011;36499;46.484;13.832;2023-11-21T12:00:10;14.53;;;8.07;;
12469;SDS011;36499;46.484;13.832;2023-11-21T12:02:41;12.00;;;7.57;;
12469;SDS011;36499;46.484;13.832;2023-11-21T12:05:11;6.90;;;4.60;;
12469;SDS011;36499;46.484;13.832;2023-11-21T12:07:46;4.90;;;2.90;;
12469;SDS011;36499;46.484;13.832;2023-11-21T12:10:14;3.30;;;2.00;;
12469;SDS011;36499;46.484;13.832;2023-11-21T12:12:43;2.00;;;1.60;;
12469;SDS011;36499;46.484;13.832;2023-11-21T12:15:11;1.70;;;1.33;;
12469;SDS011;36499;46.484;13.832;2023-11-21T12:17:39;2.13;;;1.30;;
12469;SDS011;36499;46.484;13.832;2023-11-21T12:20:10;2.67;;;1.47;;
12469;SDS011;36499;46.484;13.832;2023-11-21T12:22:42;5.53;;;1.30;;
12469;SDS011;36499;46.484;13.832;2023-11-21T12:25:10;2.90;;;2.33;;
12469;SDS011;36499;46.484;13.832;2023-11-21T12:27:41;2.03;;;1.80;;
12469;SDS011;36499;46.484;13.832;2023-11-21T12:30:09;2.53;;;1.53;;
12469;SDS011;36499;46.484;13.832;2023-11-21T12:32:39;3.90;;;2.53;;
12469;SDS011;36499;46.484;13.832;2023-11-21T12:35:06;2.03;;;1.60;;
12469;SDS011;36499;46.484;13.832;2023-11-21T12:37:36;4.43;;;2.60;;
12469;SDS011;36499;46.484;13.832;2023-11-21T12:40:04;2.00;;;1.30;;
12469;SDS011;36499;46.484;13.832;2023-11-21T12:42:32;3.63;;;1.30;;
12469;SDS011;36499;46.484;13.832;2023-11-21T12:45:07;2.37;;;1.50;;
12469;SDS011;36499;46.484;13.832;2023-11-21T12:47:39;2.37;;;1.90;;
12469;SDS011;36499;46.484;13.832;2023-11-21T12:50:06;2.80;;;2.10;;
12469;SDS011;36499;46.484;13.832;2023-11-21T12:52:40;3.60;;;2.50;;
12469;SDS011;36499;46.484;13.832;2023-11-21T12:55:12;2.50;;;2.30;;
12469;SDS011;36499;46.484;13.832;2023-11-21T12:57:41;3.43;;;2.30;;
12469;SDS011;36499;46.484;13.832;2023-11-21T13:00:09;3.53;;;2.60;;
12469;SDS011;36499;46.484;13.832;2023-11-21T13:02:49;6.53;;;4.10;;
12469;SDS011;36499;46.484;13.832;2023-11-21T13:05:23;4.67;;;3.13;;
12469;SDS011;36499;46.484;13.832;2023-11-21T13:07:52;2.63;;;1.80;;
12469;SDS011;36499;46.484;13.832;2023-11-21T13:10:20;1.90;;;1.67;;
12469;SDS011;36499;46.484;13.832;2023-11-21T13:12:51;3.37;;;2.47;;
12469;SDS011;36499;46.484;13.832;2023-11-21T13:15:20;4.90;;;2.80;;
12469;SDS011;36499;46.484;13.832;2023-11-21T13:17:47;5.23;;;3.50;;
12469;SDS011;36499;46.484;13.832;2023-11-21T13:20:16;7.20;;;4.80;;
12469;SDS011;36499;46.484;13.832;2023-11-21T13:22:48;5.33;;;3.50;;
12469;SDS011;36499;46.484;13.832;2023-11-21T13:25:18;3.50;;;2.50;;
12469;SDS011;36499;46.484;13.832;2023-11-21T13:27:45;1.67;;;1.47;;
12469;SDS011;36499;46.484;13.832;2023-11-21T13:30:12;1.90;;;1.30;;
12469;SDS011;36499;46.484;13.832;2023-11-21T13:32:44;1.50;;;1.40;;
12469;SDS011;36499;46.484;13.832;2023-11-21T13:35:12;3.83;;;1.77;;
12469;SDS011;36499;46.484;13.832;2023-11-21T13:37:48;3.30;;;1.90;;
12469;SDS011;36499;46.484;13.832;2023-11-21T13:40:22;3.33;;;2.73;;
12469;SDS011;36499;46.484;13.832;2023-11-21T13:42:51;19.57;;;14.03;;
12469;SDS011;36499;46.484;13.832;2023-11-21T13:45:20;30.73;;;23.07;;
12469;SDS011;36499;46.484;13.832;2023-11-21T13:47:48;10.23;;;7.60;;
12469;SDS011;36499;46.484;13.832;2023-11-21T13:50:17;4.80;;;3.67;;
12469;SDS011;36499;46.484;13.832;2023-11-21T13:52:48;2.80;;;2.47;;
12469;SDS011;36499;46.484;13.832;2023-11-21T13:55:16;4.30;;;2.90;;
12469;SDS011;36499;46.484;13.832;2023-11-21T13:57:44;3.77;;;2.60;;
12469;SDS011;36499;46.484;13.832;2023-11-21T14:00:14;3.47;;;2.70;;
12469;SDS011;36499;46.484;13.832;2023-11-21T14:03:06;3.20;;;2.70;;
12469;SDS011;36499;46.484;13.832;2023-11-21T14:05:41;2.97;;;2.50;;
12469;SDS011;36499;46.484;13.832;2023-11-21T14:08:09;4.03;;;2.80;;
12469;SDS011;36499;46.484;13.832;2023-11-21T14:10:39;4.13;;;3.10;;
12469;SDS011;36499;46.484;13.832;2023-11-21T14:13:10;5.47;;;4.20;;
12469;SDS011;36499;46.484;13.832;2023-11-21T14:15:38;4.73;;;2.70;;
12469;SDS011;36499;46.484;13.832;2023-11-21T14:18:08;5.77;;;4.10;;
12469;SDS011;36499;46.484;13.832;2023-11-21T14:20:36;37.57;;;24.33;;
12469;SDS011;36499;46.484;13.832;2023-11-21T14:23:05;21.37;;;14.33;;
12469;SDS011;36499;46.484;13.832;2023-11-21T14:25:32;20.77;;;13.27;;
12469;SDS011;36499;46.484;13.832;2023-11-21T14:27:59;5.80;;;3.80;;
12469;SDS011;36499;46.484;13.832;2023-11-21T14:30:27;5.03;;;3.33;;
12469;SDS011;36499;46.484;13.832;2023-11-21T14:32:57;4.57;;;3.53;;
12469;SDS011;36499;46.484;13.832;2023-11-21T14:35:23;2.60;;;2.40;;
12469;SDS011;36499;46.484;13.832;2023-11-21T14:37:51;2.93;;;2.63;;
12469;SDS011;36499;46.484;13.832;2023-11-21T14:40:18;4.07;;;3.10;;
12469;SDS011;36499;46.484;13.832;2023-11-21T14:42:49;3.13;;;2.30;;
12469;SDS011;36499;46.484;13.832;2023-11-21T14:45:18;2.77;;;1.90;;
12469;SDS011;36499;46.484;13.832;2023-11-21T14:47:47;6.83;;;3.00;;
12469;SDS011;36499;46.484;13.832;2023-11-21T14:50:22;2.90;;;2.60;;
12469;SDS011;36499;46.484;13.832;2023-11-21T14:53:34;3.33;;;2.90;;
12469;SDS011;36499;46.484;13.832;2023-11-21T14:56:08;2.83;;;2.30;;
12469;SDS011;36499;46.484;13.832;2023-11-21T14:58:36;3.80;;;2.90;;
12469;SDS011;36499;46.484;13.832;2023-11-21T15:01:03;2.80;;;2.50;;
12469;SDS011;36499;46.484;13.832;2023-11-21T15:03:32;3.27;;;2.30;;
12469;SDS011;36499;46.484;13.832;2023-11-21T15:06:14;2.77;;;2.30;;
12469;SDS011;36499;46.484;13.832;2023-11-21T15:08:54;2.23;;;1.93;;
12469;SDS011;36499;46.484;13.832;2023-11-21T15:11:42;2.70;;;1.70;;
12469;SDS011;36499;46.484;13.832;2023-11-21T15:14:09;1.90;;;1.63;;
12469;SDS011;36499;46.484;13.832;2023-11-21T15:16:38;1.60;;;1.50;;